Terminal Aerodrome Forecast
Issued by NWS Binghamton, NY

Home | Current Version | Previous Version | Text Only | Print | Product List | Glossary On
Versions: 1 2 3 4 5 6 7 8 9 10 11 12 13 14 15 16 17 18 19 20 21 22 23 24
000
FTUS41 KBGM 210047 AAA
TAFBGM
TAF AMD
KBGM 210047Z 2101/2124 17007KT P6SM OVC003
     FM210500 19006KT 3SM BR OVC003
     FM210900 21006KT 1SM BR OVC002
     FM211500 23005KT 5SM BR BKN008=

USA.gov is the U.S. government's official web portal to all federal, state and local government web resources and services.